Quadra Queen II — VGTT — position and weather

sailwx.info

Track history (hours):
 
Tides and Currents Weather Stations Pressure Air Temp Water Temp Dewpoint Dewpoint Depression Visibility Wind Speed Wind Dir Waves Ship Positions

Quadra Queen II

Last reported at 2017-Dec-14 17:57 UTC. Time now 2017-Dec-17 16:06 UTC.
Position N 50°36' W 127°03'.

Length 55 m; draft 3 m.

Type: Ship. MMSI: 316001244.

Date/timePositionNaut miles runAvg speedWind from/ knotsBaromVisibWave heightAir tempDewpointWater temp
2017-Dec-14 17:57N 50°36' W 127°03'4 5.4
2017-Dec-14 17:11N 50°35' W 126°56'5 4.9
2017-Dec-14 16:11N 50°36' W 127°04'210.7
2017-Dec-14 15:59N 50°38' W 127°01'2 2.0
2017-Dec-14 14:56N 50°36' W 127°00'3 0.3
2017-Dec-14 06:35N 50°35' W 126°56'1 9.7
2017-Dec-14 06:30N 50°35' W 126°57'4 6.8
2017-Dec-14 05:58N 50°38' W 127°01'0 0.6
2017-Dec-14 05:13N 50°37' W 127°02'0 2.2
2017-Dec-14 04:59N 50°38' W 127°01'4 6.0
2017-Dec-14 04:19N 50°35' W 126°56'5 5.7
2017-Dec-14 03:31N 50°36' W 127°03'012.8
2017-Dec-14 03:30N 50°36' W 127°03'4 2.8
2017-Dec-14 02:11N 50°35' W 126°57'1 2.5
2017-Dec-14 01:50N 50°35' W 126°56'5 4.7
2017-Dec-14 00:50N 50°36' W 127°03'2 4.9
2017-Dec-14 00:24N 50°38' W 127°01'3 4.9
2017-Dec-13 23:46N 50°36' W 127°05'512.9
2017-Dec-13 23:25N 50°35' W 126°58'1 2.8
2017-Dec-13 22:59N 50°35' W 126°56'6 6.8
2017-Dec-13 22:07N 50°36' W 127°05'210.2
2017-Dec-13 21:57N 50°36' W 127°03'2 0.6
2017-Dec-13 19:22N 50°36' W 127°05'3 4.9
2017-Dec-13 18:44N 50°38' W 127°01'2 2.6
2017-Dec-13 18:00N 50°36' W 127°02'4 5.3
2017-Dec-13 17:19N 50°35' W 126°56'6 6.3
2017-Dec-13 16:24N 50°36' W 127°05'3 8.1
2017-Dec-13 16:00N 50°38' W 127°01'2 2.1
2017-Dec-13 15:03N 50°36' W 127°02'112.2
2017-Dec-13 14:55N 50°36' W 126°60'2 0.2
2017-Dec-13 05:55N 50°38' W 127°01'2 3.5
2017-Dec-13 05:19N 50°36' W 127°03'2 5.6
2017-Dec-13 04:56N 50°38' W 127°01'4 9.1
2017-Dec-13 04:30N 50°35' W 126°56'3 5.7
2017-Dec-13 03:59N 50°36' W 127°01'2 4.0
2017-Dec-13 03:27N 50°36' W 127°04'3 5.7
2017-Dec-13 03:00N 50°38' W 127°01'3 6.2
2017-Dec-13 02:29N 50°36' W 127°05'611.7
2017-Dec-13 01:59N 50°35' W 126°56'3 5.2
2017-Dec-13 01:28N 50°36' W 127°00'2 4.4
2017-Dec-13 00:54N 50°36' W 127°04'3 5.1
2017-Dec-13 00:24N 50°38' W 127°01'3 3.9
2017-Dec-12 23:45N 50°36' W 127°04'412.9
2017-Dec-12 23:24N 50°35' W 126°57'0 0.8
2017-Dec-12 22:52N 50°35' W 126°57'410.4
2017-Dec-12 22:30N 50°36' W 127°03'2 2.6
2017-Dec-12 21:54N 50°37' W 127°02'2 1.9
2017-Dec-12 21:00N 50°36' W 127°03'5 6.7
2017-Dec-12 20:18N 50°35' W 126°56'411.1
2017-Dec-12 19:58N 50°36' W 127°02'1 1.3
2017-Dec-12 19:24N 50°36' W 127°03'2 3.4
2017-Dec-12 18:51N 50°38' W 127°01'2 2.5
2017-Dec-12 17:54N 50°35' W 126°60'3 3.6
2017-Dec-12 17:12N 50°35' W 126°56'411.0
2017-Dec-12 16:50N 50°36' W 127°02'2 5.5
2017-Dec-12 16:29N 50°36' W 127°05'3 4.5
2017-Dec-12 15:49N 50°38' W 127°01'2 2.6
2017-Dec-12 15:03N 50°36' W 127°02'211.8
2017-Dec-12 14:55N 50°35' W 126°59'2 0.3
2017-Dec-12 06:34N 50°35' W 126°56'410.5
2017-Dec-12 06:12N 50°37' W 127°02'1 2.4
2017-Dec-12 05:55N 50°38' W 127°02'1 1.8
2017-Dec-12 05:15N 50°36' W 127°02'1 1.8
2017-Dec-12 04:53N 50°37' W 127°02'1 0.7
2017-Dec-12 03:26N 50°36' W 127°03'4 2.7
2017-Dec-12 02:08N 50°35' W 126°57'4 2.4
2017-Dec-12 00:38N 50°38' W 127°01'2 4.3
2017-Dec-12 00:14N 50°36' W 127°03'2 3.3
2017-Dec-11 23:46N 50°36' W 127°05'413.0
2017-Dec-11 23:28N 50°35' W 126°59'2 4.0
2017-Dec-11 22:57N 50°35' W 126°56'4 9.3
2017-Dec-11 22:29N 50°36' W 127°03'0 0.8
2017-Dec-11 22:00N 50°36' W 127°03'1 2.7
2017-Dec-11 21:27N 50°37' W 127°02'3 5.0
2017-Dec-11 20:55N 50°36' W 127°05'512.6
2017-Dec-11 20:30N 50°35' W 126°57'4 2.8
2017-Dec-11 19:13N 50°36' W 127°03'2 3.6
2017-Dec-11 18:43N 50°38' W 127°01'3 4.4
2017-Dec-11 18:06N 50°36' W 127°04'212.0
2017-Dec-11 17:54N 50°36' W 127°01'3 5.4
2017-Dec-11 17:20N 50°35' W 126°56'5 5.0
2017-Dec-11 16:19N 50°36' W 127°04'2 4.9
2017-Dec-11 15:49N 50°38' W 127°01'2 2.6
2017-Dec-11 15:04N 50°36' W 127°02'111.9
2017-Dec-11 14:59N 50°36' W 127°01'3 0.4
2017-Dec-11 06:36N 50°35' W 126°56'1 8.6
2017-Dec-11 06:29N 50°35' W 126°57'3 6.4
2017-Dec-11 05:57N 50°38' W 127°01'3 4.6
2017-Dec-11 05:22N 50°36' W 127°04'3 5.9
2017-Dec-11 04:56N 50°38' W 127°01'4 9.4
2017-Dec-11 04:30N 50°35' W 126°56'3 5.5
2017-Dec-11 04:00N 50°35' W 127°00'2 3.5
2017-Dec-11 03:26N 50°36' W 127°04'2 5.0
2017-Dec-11 03:00N 50°38' W 127°01'2 2.8
2017-Dec-11 02:19N 50°36' W 127°02'1 0.5
2017-Dec-11 00:45N 50°37' W 127°02'1 0.8
2017-Dec-10 23:42N 50°36' W 127°02'313.5
2017-Dec-10 23:28N 50°35' W 126°57'0 0.3
2017-Dec-10 22:48N 50°35' W 126°57'4 4.7
2017-Dec-10 21:58N 50°36' W 127°03'2 4.3
2017-Dec-10 21:28N 50°38' W 127°01'2 2.6
2017-Dec-10 20:44N 50°36' W 127°02'313.9
2017-Dec-10 20:29N 50°35' W 126°57'4 3.3
2017-Dec-10 19:13N 50°36' W 127°03'2 4.1
2017-Dec-10 18:43N 50°38' W 127°01'2 2.7
2017-Dec-10 17:58N 50°36' W 127°02'4 5.3
2017-Dec-10 17:12N 50°35' W 126°56'6 3.8
2017-Dec-10 15:40N 50°36' W 127°05'210.2
2017-Dec-10 15:29N 50°36' W 127°02'1 2.5
2017-Dec-10 15:01N 50°36' W 127°01'3 0.5
2017-Dec-10 08:33N 50°35' W 126°56'0 0.0
2017-Dec-10 06:42N 50°35' W 126°56'2 8.5
2017-Dec-10 06:29N 50°36' W 126°59'3 3.9
2017-Dec-10 05:45N 50°36' W 127°03'0 0.5
2017-Dec-10 05:19N 50°36' W 127°03'2 6.1
2017-Dec-10 04:59N 50°38' W 127°01'4 8.4
2017-Dec-10 04:30N 50°35' W 126°56'4 6.3
2017-Dec-10 03:55N 50°36' W 127°02'2 5.0
2017-Dec-10 03:30N 50°36' W 127°05'3 5.9
2017-Dec-10 02:59N 50°38' W 127°01'2 3.6
2017-Dec-10 02:21N 50°36' W 127°03'412.9
2017-Dec-10 02:00N 50°35' W 126°57'5 4.1
2017-Dec-10 00:52N 50°36' W 127°04'2 1.2
2017-Dec-09 23:37N 50°36' W 127°02'313.4
2017-Dec-09 23:25N 50°35' W 126°57'3 2.3
2017-Dec-09 21:56N 50°36' W 127°02'1 3.4
2017-Dec-09 21:30N 50°38' W 127°01'2 2.3
2017-Dec-09 20:42N 50°36' W 127°01'314.3
2017-Dec-09 20:29N 50°35' W 126°57'3 2.5
2017-Dec-09 19:07N 50°37' W 127°01'1 1.3
2017-Dec-09 18:43N 50°37' W 127°02'2 2.3
2017-Dec-09 17:55N 50°36' W 127°02'3 4.5
2017-Dec-09 17:11N 50°35' W 126°56'4 4.7
2017-Dec-09 16:15N 50°36' W 127°03'2 4.9
2017-Dec-09 15:48N 50°38' W 127°01'2 2.6
2017-Dec-09 14:57N 50°36' W 126°60'3 0.4
2017-Dec-09 09:03N 50°35' W 126°56'1 0.5
2017-Dec-09 06:33N 50°35' W 126°58'1 9.8
2017-Dec-09 06:29N 50°35' W 126°59'3 4.4
2017-Dec-09 05:54N 50°37' W 127°02'3 5.5
2017-Dec-09 05:23N 50°36' W 127°05'3 7.2
2017-Dec-09 04:56N 50°38' W 127°01'4 9.0
2017-Dec-09 04:30N 50°35' W 126°56'5 5.1
2017-Dec-09 03:29N 50°36' W 127°04'2 4.6
2017-Dec-09 03:00N 50°37' W 127°02'2 2.7
2017-Dec-09 02:19N 50°35' W 127°01'310.5
2017-Dec-09 02:00N 50°35' W 126°56'5 4.0
2017-Dec-09 00:51N 50°36' W 127°03'2 4.4
2017-Dec-09 00:24N 50°38' W 127°01'2 3.0
2017-Dec-08 23:42N 50°36' W 127°03'312.7
2017-Dec-08 23:27N 50°35' W 126°58'1 2.0
2017-Dec-08 22:57N 50°35' W 126°56'5 5.5
2017-Dec-08 22:02N 50°36' W 127°04'014.0
2017-Dec-08 22:00N 50°36' W 127°03'2 3.4
2017-Dec-08 21:27N 50°37' W 127°02'2 2.6
2017-Dec-08 20:42N 50°36' W 127°01'313.5
2017-Dec-08 20:30N 50°35' W 126°56'1 2.5
2017-Dec-08 20:00N 50°35' W 126°58'3 4.6
2017-Dec-08 19:16N 50°36' W 127°04'2 4.7
2017-Dec-08 18:47N 50°38' W 127°01'2 4.0
2017-Dec-08 18:10N 50°36' W 127°04'313.2
2017-Dec-08 17:58N 50°36' W 126°59'2 4.8
2017-Dec-08 17:30N 50°35' W 126°56'6 5.7
2017-Dec-08 16:28N 50°36' W 127°05'3 5.2
2017-Dec-08 15:51N 50°38' W 127°01'2 3.0
2017-Dec-08 15:08N 50°36' W 127°03'212.3
2017-Dec-08 15:00N 50°36' W 127°00'3 0.3
2017-Dec-08 06:41N 50°35' W 126°56'2 8.3
2017-Dec-08 06:27N 50°35' W 126°59'3 4.6
2017-Dec-08 05:53N 50°38' W 127°01'3 5.6
2017-Dec-08 05:22N 50°36' W 127°05'3 6.8
2017-Dec-08 04:55N 50°38' W 127°01'4 5.3
2017-Dec-08 04:13N 50°35' W 126°57'310.2
2017-Dec-08 03:56N 50°36' W 127°01'2 5.2
2017-Dec-08 03:29N 50°36' W 127°05'3 6.2
2017-Dec-08 03:00N 50°38' W 127°01'2 2.7
2017-Dec-08 02:18N 50°36' W 127°02'412.0
2017-Dec-08 02:00N 50°35' W 126°56'2 4.7
2017-Dec-08 01:28N 50°35' W 127°00'3 5.1
2017-Dec-08 00:54N 50°36' W 127°05'3 6.0
2017-Dec-08 00:25N 50°38' W 127°01'3 4.6
2017-Dec-07 23:48N 50°36' W 127°05'412.2
2017-Dec-07 23:29N 50°35' W 126°59'2 3.1
2017-Dec-07 22:58N 50°35' W 126°56'6 8.3
2017-Dec-07 22:17N 50°36' W 127°05'2 6.5
2017-Dec-07 22:00N 50°36' W 127°03'0 0.9
2017-Dec-07 21:28N 50°37' W 127°02'1 1.6
2017-Dec-07 20:50N 50°36' W 127°02'411.6
2017-Dec-07 20:30N 50°35' W 126°56'2 3.2
2017-Dec-07 19:58N 50°35' W 126°59'4 5.2
2017-Dec-07 19:17N 50°36' W 127°04'3 4.8
2017-Dec-07 18:45N 50°38' W 127°01'3 4.2
2017-Dec-07 18:05N 50°36' W 127°05'112.7
2017-Dec-07 17:59N 50°36' W 127°02'4 6.7
2017-Dec-07 17:21N 50°35' W 126°56'4 9.2
2017-Dec-07 16:57N 50°36' W 127°02'1 2.3
2017-Dec-07 16:23N 50°36' W 127°04'2 4.7
2017-Dec-07 15:53N 50°38' W 127°01'3 3.9
2017-Dec-07 15:10N 50°36' W 127°04'212.4
2017-Dec-07 15:00N 50°36' W 127°01'3 3.8
2017-Dec-07 14:07N 50°35' W 126°56'0 0.0
2017-Dec-07 13:58N 50°35' W 126°56'0 0.0
2017-Dec-07 06:34N 50°35' W 126°56'1 8.5
2017-Dec-07 06:28N 50°35' W 126°57'4 5.8
2017-Dec-07 05:51N 50°38' W 127°01'3 5.6
2017-Dec-07 05:18N 50°36' W 127°05'3 6.7
2017-Dec-07 04:50N 50°38' W 127°01'411.1
2017-Dec-07 04:29N 50°35' W 126°57'2 4.5
2017-Dec-07 03:59N 50°36' W 127°00'2 4.2
2017-Dec-07 03:25N 50°36' W 127°04'1 2.8
2017-Dec-07 02:57N 50°37' W 127°02'1 2.1
2017-Dec-07 02:26N 50°36' W 127°03'2 0.5
2017-Dec-06 22:06N 50°38' W 127°01'0 0.7
2017-Dec-06 21:50N 50°38' W 127°01'  
Track history (hours):
 
Tides and Currents Weather Stations Pressure Air Temp Water Temp Dewpoint Dewpoint Depression Visibility Wind Speed Wind Dir Waves Ship Positions

Quadra Queen II

Last reported at 2017-Dec-14 17:57 UTC. Time now 2017-Dec-17 16:06 UTC.
Position N 50°36' W 127°03'.

Length 55 m; draft 3 m.

Type: Ship. MMSI: 316001244.

Date/timePositionNaut miles runAvg speedWind from/ knotsBaromVisibWave heightAir tempDewpointWater temp
2017-Dec-14 17:57N 50°36' W 127°03'4 5.4
2017-Dec-14 17:11N 50°35' W 126°56'5 4.9
2017-Dec-14 16:11N 50°36' W 127°04'210.7
2017-Dec-14 15:59N 50°38' W 127°01'2 2.0
2017-Dec-14 14:56N 50°36' W 127°00'3 0.3
2017-Dec-14 06:35N 50°35' W 126°56'1 9.7
2017-Dec-14 06:30N 50°35' W 126°57'4 6.8
2017-Dec-14 05:58N 50°38' W 127°01'0 0.6
2017-Dec-14 05:13N 50°37' W 127°02'0 2.2
2017-Dec-14 04:59N 50°38' W 127°01'4 6.0
2017-Dec-14 04:19N 50°35' W 126°56'5 5.7
2017-Dec-14 03:31N 50°36' W 127°03'012.8
2017-Dec-14 03:30N 50°36' W 127°03'4 2.8
2017-Dec-14 02:11N 50°35' W 126°57'1 2.5
2017-Dec-14 01:50N 50°35' W 126°56'5 4.7
2017-Dec-14 00:50N 50°36' W 127°03'2 4.9
2017-Dec-14 00:24N 50°38' W 127°01'3 4.9
2017-Dec-13 23:46N 50°36' W 127°05'512.9
2017-Dec-13 23:25N 50°35' W 126°58'1 2.8
2017-Dec-13 22:59N 50°35' W 126°56'6 6.8
2017-Dec-13 22:07N 50°36' W 127°05'210.2
2017-Dec-13 21:57N 50°36' W 127°03'2 0.6
2017-Dec-13 19:22N 50°36' W 127°05'3 4.9
2017-Dec-13 18:44N 50°38' W 127°01'2 2.6
2017-Dec-13 18:00N 50°36' W 127°02'4 5.3
2017-Dec-13 17:19N 50°35' W 126°56'6 6.3
2017-Dec-13 16:24N 50°36' W 127°05'3 8.1
2017-Dec-13 16:00N 50°38' W 127°01'2 2.1
2017-Dec-13 15:03N 50°36' W 127°02'112.2
2017-Dec-13 14:55N 50°36' W 126°60'2 0.2
2017-Dec-13 05:55N 50°38' W 127°01'2 3.5
2017-Dec-13 05:19N 50°36' W 127°03'2 5.6
2017-Dec-13 04:56N 50°38' W 127°01'4 9.1
2017-Dec-13 04:30N 50°35' W 126°56'3 5.7
2017-Dec-13 03:59N 50°36' W 127°01'2 4.0
2017-Dec-13 03:27N 50°36' W 127°04'3 5.7
2017-Dec-13 03:00N 50°38' W 127°01'3 6.2
2017-Dec-13 02:29N 50°36' W 127°05'611.7
2017-Dec-13 01:59N 50°35' W 126°56'3 5.2
2017-Dec-13 01:28N 50°36' W 127°00'2 4.4
2017-Dec-13 00:54N 50°36' W 127°04'3 5.1
2017-Dec-13 00:24N 50°38' W 127°01'3 3.9
2017-Dec-12 23:45N 50°36' W 127°04'412.9
2017-Dec-12 23:24N 50°35' W 126°57'0 0.8
2017-Dec-12 22:52N 50°35' W 126°57'410.4
2017-Dec-12 22:30N 50°36' W 127°03'2 2.6
2017-Dec-12 21:54N 50°37' W 127°02'2 1.9
2017-Dec-12 21:00N 50°36' W 127°03'5 6.7
2017-Dec-12 20:18N 50°35' W 126°56'411.1
2017-Dec-12 19:58N 50°36' W 127°02'1 1.3
2017-Dec-12 19:24N 50°36' W 127°03'2 3.4
2017-Dec-12 18:51N 50°38' W 127°01'2 2.5
2017-Dec-12 17:54N 50°35' W 126°60'3 3.6
2017-Dec-12 17:12N 50°35' W 126°56'411.0
2017-Dec-12 16:50N 50°36' W 127°02'2 5.5
2017-Dec-12 16:29N 50°36' W 127°05'3 4.5
2017-Dec-12 15:49N 50°38' W 127°01'2 2.6
2017-Dec-12 15:03N 50°36' W 127°02'211.8
2017-Dec-12 14:55N 50°35' W 126°59'2 0.3
2017-Dec-12 06:34N 50°35' W 126°56'410.5
2017-Dec-12 06:12N 50°37' W 127°02'1 2.4
2017-Dec-12 05:55N 50°38' W 127°02'1 1.8
2017-Dec-12 05:15N 50°36' W 127°02'1 1.8
2017-Dec-12 04:53N 50°37' W 127°02'1 0.7
2017-Dec-12 03:26N 50°36' W 127°03'4 2.7
2017-Dec-12 02:08N 50°35' W 126°57'4 2.4
2017-Dec-12 00:38N 50°38' W 127°01'2 4.3
2017-Dec-12 00:14N 50°36' W 127°03'2 3.3
2017-Dec-11 23:46N 50°36' W 127°05'413.0
2017-Dec-11 23:28N 50°35' W 126°59'2 4.0
2017-Dec-11 22:57N 50°35' W 126°56'4 9.3
2017-Dec-11 22:29N 50°36' W 127°03'0 0.8
2017-Dec-11 22:00N 50°36' W 127°03'1 2.7
2017-Dec-11 21:27N 50°37' W 127°02'3 5.0
2017-Dec-11 20:55N 50°36' W 127°05'512.6
2017-Dec-11 20:30N 50°35' W 126°57'4 2.8
2017-Dec-11 19:13N 50°36' W 127°03'2 3.6
2017-Dec-11 18:43N 50°38' W 127°01'3 4.4
2017-Dec-11 18:06N 50°36' W 127°04'212.0
2017-Dec-11 17:54N 50°36' W 127°01'3 5.4
2017-Dec-11 17:20N 50°35' W 126°56'5 5.0
2017-Dec-11 16:19N 50°36' W 127°04'2 4.9
2017-Dec-11 15:49N 50°38' W 127°01'2 2.6
2017-Dec-11 15:04N 50°36' W 127°02'111.9
2017-Dec-11 14:59N 50°36' W 127°01'3 0.4
2017-Dec-11 06:36N 50°35' W 126°56'1 8.6
2017-Dec-11 06:29N 50°35' W 126°57'3 6.4
2017-Dec-11 05:57N 50°38' W 127°01'3 4.6
2017-Dec-11 05:22N 50°36' W 127°04'3 5.9
2017-Dec-11 04:56N 50°38' W 127°01'4 9.4
2017-Dec-11 04:30N 50°35' W 126°56'3 5.5
2017-Dec-11 04:00N 50°35' W 127°00'2 3.5
2017-Dec-11 03:26N 50°36' W 127°04'2 5.0
2017-Dec-11 03:00N 50°38' W 127°01'2 2.8
2017-Dec-11 02:19N 50°36' W 127°02'1 0.5
2017-Dec-11 00:45N 50°37' W 127°02'1 0.8
2017-Dec-10 23:42N 50°36' W 127°02'313.5
2017-Dec-10 23:28N 50°35' W 126°57'0 0.3
2017-Dec-10 22:48N 50°35' W 126°57'4 4.7
2017-Dec-10 21:58N 50°36' W 127°03'2 4.3
2017-Dec-10 21:28N 50°38' W 127°01'2 2.6
2017-Dec-10 20:44N 50°36' W 127°02'313.9
2017-Dec-10 20:29N 50°35' W 126°57'4 3.3
2017-Dec-10 19:13N 50°36' W 127°03'2 4.1
2017-Dec-10 18:43N 50°38' W 127°01'2 2.7
2017-Dec-10 17:58N 50°36' W 127°02'4 5.3
2017-Dec-10 17:12N 50°35' W 126°56'6 3.8
2017-Dec-10 15:40N 50°36' W 127°05'210.2
2017-Dec-10 15:29N 50°36' W 127°02'1 2.5
2017-Dec-10 15:01N 50°36' W 127°01'3 0.5
2017-Dec-10 08:33N 50°35' W 126°56'0 0.0
2017-Dec-10 06:42N 50°35' W 126°56'2 8.5
2017-Dec-10 06:29N 50°36' W 126°59'3 3.9
2017-Dec-10 05:45N 50°36' W 127°03'0 0.5
2017-Dec-10 05:19N 50°36' W 127°03'2 6.1
2017-Dec-10 04:59N 50°38' W 127°01'4 8.4
2017-Dec-10 04:30N 50°35' W 126°56'4 6.3
2017-Dec-10 03:55N 50°36' W 127°02'2 5.0
2017-Dec-10 03:30N 50°36' W 127°05'3 5.9
2017-Dec-10 02:59N 50°38' W 127°01'2 3.6
2017-Dec-10 02:21N 50°36' W 127°03'412.9
2017-Dec-10 02:00N 50°35' W 126°57'5 4.1
2017-Dec-10 00:52N 50°36' W 127°04'2 1.2
2017-Dec-09 23:37N 50°36' W 127°02'313.4
2017-Dec-09 23:25N 50°35' W 126°57'3 2.3
2017-Dec-09 21:56N 50°36' W 127°02'1 3.4
2017-Dec-09 21:30N 50°38' W 127°01'2 2.3
2017-Dec-09 20:42N 50°36' W 127°01'314.3
2017-Dec-09 20:29N 50°35' W 126°57'3 2.5
2017-Dec-09 19:07N 50°37' W 127°01'1 1.3
2017-Dec-09 18:43N 50°37' W 127°02'2 2.3
2017-Dec-09 17:55N 50°36' W 127°02'3 4.5
2017-Dec-09 17:11N 50°35' W 126°56'4 4.7
2017-Dec-09 16:15N 50°36' W 127°03'2 4.9
2017-Dec-09 15:48N 50°38' W 127°01'2 2.6
2017-Dec-09 14:57N 50°36' W 126°60'3 0.4
2017-Dec-09 09:03N 50°35' W 126°56'1 0.5
2017-Dec-09 06:33N 50°35' W 126°58'1 9.8
2017-Dec-09 06:29N 50°35' W 126°59'3 4.4
2017-Dec-09 05:54N 50°37' W 127°02'3 5.5
2017-Dec-09 05:23N 50°36' W 127°05'3 7.2
2017-Dec-09 04:56N 50°38' W 127°01'4 9.0
2017-Dec-09 04:30N 50°35' W 126°56'5 5.1
2017-Dec-09 03:29N 50°36' W 127°04'2 4.6
2017-Dec-09 03:00N 50°37' W 127°02'2 2.7
2017-Dec-09 02:19N 50°35' W 127°01'310.5
2017-Dec-09 02:00N 50°35' W 126°56'5 4.0
2017-Dec-09 00:51N 50°36' W 127°03'2 4.4
2017-Dec-09 00:24N 50°38' W 127°01'2 3.0
2017-Dec-08 23:42N 50°36' W 127°03'312.7
2017-Dec-08 23:27N 50°35' W 126°58'1 2.0
2017-Dec-08 22:57N 50°35' W 126°56'5 5.5
2017-Dec-08 22:02N 50°36' W 127°04'014.0
2017-Dec-08 22:00N 50°36' W 127°03'2 3.4
2017-Dec-08 21:27N 50°37' W 127°02'2 2.6
2017-Dec-08 20:42N 50°36' W 127°01'313.5
2017-Dec-08 20:30N 50°35' W 126°56'1 2.5
2017-Dec-08 20:00N 50°35' W 126°58'3 4.6
2017-Dec-08 19:16N 50°36' W 127°04'2 4.7
2017-Dec-08 18:47N 50°38' W 127°01'2 4.0
2017-Dec-08 18:10N 50°36' W 127°04'313.2
2017-Dec-08 17:58N 50°36' W 126°59'2 4.8
2017-Dec-08 17:30N 50°35' W 126°56'6 5.7
2017-Dec-08 16:28N 50°36' W 127°05'3 5.2
2017-Dec-08 15:51N 50°38' W 127°01'2 3.0
2017-Dec-08 15:08N 50°36' W 127°03'212.3
2017-Dec-08 15:00N 50°36' W 127°00'3 0.3
2017-Dec-08 06:41N 50°35' W 126°56'2 8.3
2017-Dec-08 06:27N 50°35' W 126°59'3 4.6
2017-Dec-08 05:53N 50°38' W 127°01'3 5.6
2017-Dec-08 05:22N 50°36' W 127°05'3 6.8
2017-Dec-08 04:55N 50°38' W 127°01'4 5.3
2017-Dec-08 04:13N 50°35' W 126°57'310.2
2017-Dec-08 03:56N 50°36' W 127°01'2 5.2
2017-Dec-08 03:29N 50°36' W 127°05'3 6.2
2017-Dec-08 03:00N 50°38' W 127°01'2 2.7
2017-Dec-08 02:18N 50°36' W 127°02'412.0
2017-Dec-08 02:00N 50°35' W 126°56'2 4.7
2017-Dec-08 01:28N 50°35' W 127°00'3 5.1
2017-Dec-08 00:54N 50°36' W 127°05'3 6.0
2017-Dec-08 00:25N 50°38' W 127°01'3 4.6
2017-Dec-07 23:48N 50°36' W 127°05'412.2
2017-Dec-07 23:29N 50°35' W 126°59'2 3.1
2017-Dec-07 22:58N 50°35' W 126°56'6 8.3
2017-Dec-07 22:17N 50°36' W 127°05'2 6.5
2017-Dec-07 22:00N 50°36' W 127°03'0 0.9
2017-Dec-07 21:28N 50°37' W 127°02'1 1.6
2017-Dec-07 20:50N 50°36' W 127°02'411.6
2017-Dec-07 20:30N 50°35' W 126°56'2 3.2
2017-Dec-07 19:58N 50°35' W 126°59'4 5.2
2017-Dec-07 19:17N 50°36' W 127°04'3 4.8
2017-Dec-07 18:45N 50°38' W 127°01'3 4.2
2017-Dec-07 18:05N 50°36' W 127°05'112.7
2017-Dec-07 17:59N 50°36' W 127°02'4 6.7
2017-Dec-07 17:21N 50°35' W 126°56'4 9.2
2017-Dec-07 16:57N 50°36' W 127°02'1 2.3
2017-Dec-07 16:23N 50°36' W 127°04'2 4.7
2017-Dec-07 15:53N 50°38' W 127°01'3 3.9
2017-Dec-07 15:10N 50°36' W 127°04'212.4
2017-Dec-07 15:00N 50°36' W 127°01'3 3.8
2017-Dec-07 14:07N 50°35' W 126°56'0 0.0
2017-Dec-07 13:58N 50°35' W 126°56'0 0.0
2017-Dec-07 06:34N 50°35' W 126°56'1 8.5
2017-Dec-07 06:28N 50°35' W 126°57'4 5.8
2017-Dec-07 05:51N 50°38' W 127°01'3 5.6
2017-Dec-07 05:18N 50°36' W 127°05'3 6.7
2017-Dec-07 04:50N 50°38' W 127°01'411.1
2017-Dec-07 04:29N 50°35' W 126°57'2 4.5
2017-Dec-07 03:59N 50°36' W 127°00'2 4.2
2017-Dec-07 03:25N 50°36' W 127°04'1 2.8
2017-Dec-07 02:57N 50°37' W 127°02'1 2.1
2017-Dec-07 02:26N 50°36' W 127°03'2 0.5
2017-Dec-06 22:06N 50°38' W 127°01'0 0.7
2017-Dec-06 21:50N 50°38' W 127°01'  

Dump ship's entire track history